Time;durP1;ratioP1;P1;durP2;ratioP2;P2;SDS_P1;SDS_P2;PMS_P1;PMS_P2;Temp;Humidity;BMP_temperature;BMP_pressure;BME280_temperature;BME280_humidity;BME280_pressure;Samples;Min_cycle;Max_cycle;Signal;HPM_P1;HPM_P2
2021/09/17 00:02:07;;;;;;;11.80;7.43;;;;;;;14.45;80.56;96339.38;5089480;28;20063;-76
2021/09/17 00:04:34;;;;;;;16.33;7.80;;;;;;;14.41;80.73;96332.97;5089851;28;20044;-74
2021/09/17 00:07:00;;;;;;;15.73;8.52;;;;;;;14.34;80.74;96328.06;5089933;28;20040;-74
2021/09/17 00:09:28;;;;;;;14.15;8.75;;;;;;;14.29;81.13;96322.81;5089390;28;20051;-74
2021/09/17 00:11:55;;;;;;;13.55;8.13;;;;;;;14.25;81.66;96320.00;5089096;28;20043;-74
2021/09/17 00:14:21;;;;;;;14.73;8.82;;;;;;;14.26;81.99;96324.31;5089506;28;20052;-74
2021/09/17 00:16:48;;;;;;;16.08;9.75;;;;;;;14.24;81.98;96323.84;5089268;28;20048;-74
2021/09/17 00:19:14;;;;;;;17.02;9.13;;;;;;;14.23;82.07;96321.44;5088501;28;20052;-73
2021/09/17 00:21:41;;;;;;;18.60;9.18;;;;;;;14.16;82.36;96316.56;5089498;28;20059;-74
2021/09/17 00:24:07;;;;;;;15.10;8.90;;;;;;;14.17;82.79;96318.16;5089039;28;20048;-75
2021/09/17 00:26:35;;;;;;;14.90;9.20;;;;;;;14.17;82.44;96312.66;5089541;28;20051;-74
2021/09/17 00:29:01;;;;;;;14.57;9.50;;;;;;;14.15;82.43;96314.97;5088773;28;20051;-74
2021/09/17 00:31:28;;;;;;;15.32;9.25;;;;;;;14.16;82.14;96321.22;5089523;28;20052;-73
2021/09/17 00:33:54;;;;;;;17.33;10.32;;;;;;;14.16;81.92;96326.72;5089122;28;20410;-74
2021/09/17 00:36:21;;;;;;;17.13;10.40;;;;;;;14.15;82.13;96330.56;5088998;28;20521;-74
2021/09/17 00:38:47;;;;;;;17.23;9.93;;;;;;;14.08;82.41;96322.91;5088901;28;20446;-74
2021/09/17 00:41:14;;;;;;;17.42;10.68;;;;;;;14.00;82.82;96324.63;5088876;28;20716;-74
2021/09/17 00:43:42;;;;;;;16.38;10.95;;;;;;;13.97;82.99;96324.50;5088143;28;20154;-74
2021/09/17 00:46:09;;;;;;;18.75;11.27;;;;;;;13.93;82.99;96331.81;5088521;28;20785;-74
2021/09/17 00:48:35;;;;;;;19.00;10.85;;;;;;;13.89;83.03;96325.44;5088980;28;20059;-74
2021/09/17 00:51:02;;;;;;;18.88;11.15;;;;;;;13.79;83.17;96322.00;5088789;28;20388;-73
2021/09/17 00:53:33;;;;;;;23.92;13.23;;;;;;;13.72;83.43;96324.47;5088936;28;20048;-74
2021/09/17 00:56:00;;;;;;;21.35;12.25;;;;;;;13.73;83.96;96314.31;5088924;28;20094;-74
2021/09/17 00:58:26;;;;;;;20.90;12.65;;;;;;;13.69;83.29;96314.22;5088347;28;20051;-74
2021/09/17 01:00:54;;;;;;;22.48;12.73;;;;;;;13.63;84.09;96315.56;5088910;28;20048;-73
2021/09/17 01:03:20;;;;;;;19.73;12.63;;;;;;;13.59;83.23;96311.91;5088351;28;20056;-74
2021/09/17 01:05:47;;;;;;;21.70;12.27;;;;;;;13.54;83.59;96312.13;5089357;28;20048;-74
2021/09/17 01:08:13;;;;;;;18.42;12.20;;;;;;;13.54;83.71;96306.66;5088232;28;20044;-73
2021/09/17 01:10:40;;;;;;;21.83;12.52;;;;;;;13.53;83.71;96305.84;5089014;28;20052;-74
2021/09/17 01:13:07;;;;;;;21.40;12.23;;;;;;;13.54;83.45;96312.91;5088089;28;20048;-73
2021/09/17 01:15:33;;;;;;;20.30;12.05;;;;;;;13.53;83.79;96310.53;5088764;28;20048;-74
2021/09/17 01:18:01;;;;;;;25.80;12.73;;;;;;;13.51;83.45;96308.09;5088089;28;20491;-74
2021/09/17 01:20:27;;;;;;;21.83;13.27;;;;;;;13.40;83.60;96311.59;5088144;28;20055;-74
2021/09/17 01:22:55;;;;;;;25.50;14.02;;;;;;;13.36;83.84;96316.16;5088409;28;20516;-74
2021/09/17 01:25:23;;;;;;;22.23;13.82;;;;;;;13.35;84.08;96306.34;5088063;28;20052;-74
2021/09/17 01:27:52;;;;;;;23.40;13.18;;;;;;;13.30;84.11;96302.69;5088015;28;20058;-74
2021/09/17 01:30:20;;;;;;;27.30;14.10;;;;;;;13.27;84.19;96297.91;5088050;28;20048;-74
2021/09/17 01:32:47;;;;;;;24.50;13.90;;;;;;;13.29;84.52;96292.88;5088651;28;20044;-74
2021/09/17 01:35:16;;;;;;;26.73;13.95;;;;;;;13.32;84.42;96299.63;5083345;28;20044;-75
2021/09/17 01:37:44;;;;;;;22.92;13.95;;;;;;;13.34;85.28;96291.09;5087935;28;20126;-74
2021/09/17 01:40:13;;;;;;;35.25;14.90;;;;;;;13.36;84.70;96284.13;5087464;28;20691;-73
2021/09/17 01:42:40;;;;;;;22.20;13.27;;;;;;;13.38;84.88;96286.53;5088379;28;20071;-74
2021/09/17 01:45:07;;;;;;;20.90;12.82;;;;;;;13.45;84.34;96292.25;5088006;28;20391;-73
2021/09/17 01:47:34;;;;;;;21.80;13.25;;;;;;;13.46;84.47;96282.91;5083787;28;20064;-74
2021/09/17 01:50:00;;;;;;;24.90;14.13;;;;;;;13.48;84.54;96286.91;5088008;28;20487;-74
2021/09/17 01:52:27;;;;;;;23.45;13.57;;;;;;;13.53;83.87;96286.69;5087420;28;20423;-74
2021/09/17 01:54:53;;;;;;;26.60;13.02;;;;;;;13.56;83.98;96283.28;5084463;28;20052;-74
2021/09/17 01:57:21;;;;;;;23.00;13.15;;;;;;;13.57;83.32;96284.91;5091522;28;20044;-74
2021/09/17 01:59:48;;;;;;;21.70;12.20;;;;;;;13.56;83.80;96285.22;5092437;28;20417;-73
2021/09/17 02:02:14;;;;;;;22.33;13.32;;;;;;;13.54;83.67;96284.75;5092051;28;20047;-73
2021/09/17 02:04:41;;;;;;;22.75;12.60;;;;;;;13.50;83.74;96286.56;5092295;28;20052;-73
2021/09/17 02:07:07;;;;;;;21.98;12.60;;;;;;;13.49;84.14;96282.25;5091926;28;20055;-75
2021/09/17 02:09:34;;;;;;;28.15;13.30;;;;;;;13.48;84.60;96286.13;5092127;28;20498;-74
2021/09/17 02:12:00;;;;;;;22.27;13.20;;;;;;;13.52;84.41;96276.91;5092295;28;20051;-74
2021/09/17 02:14:28;;;;;;;23.13;12.45;;;;;;;13.54;84.02;96282.03;5091957;28;20051;-74
2021/09/17 02:16:55;;;;;;;23.75;12.80;;;;;;;13.55;84.20;96286.34;5092066;28;20047;-74
2021/09/17 02:19:21;;;;;;;22.17;12.65;;;;;;;13.52;84.15;96289.75;5090937;28;20055;-74
2021/09/17 02:21:50;;;;;;;25.30;13.77;;;;;;;13.48;84.35;96288.84;5091782;28;20052;-74
2021/09/17 02:24:16;;;;;;;22.20;13.15;;;;;;;13.51;84.77;96285.44;5091202;28;20048;-74
2021/09/17 02:26:43;;;;;;;25.65;13.80;;;;;;;13.57;84.81;96284.06;5091837;28;20051;-75
2021/09/17 02:29:09;;;;;;;23.20;13.77;;;;;;;13.62;85.23;96291.25;5091238;28;20052;-74
2021/09/17 02:31:38;;;;;;;22.40;12.80;;;;;;;13.70;84.02;96293.91;5091688;28;20059;-74
2021/09/17 02:34:04;;;;;;;24.45;12.57;;;;;;;13.75;83.33;96285.47;5091327;28;20055;-74
2021/09/17 02:36:31;;;;;;;27.65;12.98;;;;;;;13.78;83.24;96293.03;5091871;28;20052;-73
2021/09/17 02:38:57;;;;;;;22.17;12.70;;;;;;;13.79;83.16;96296.56;5091289;28;20056;-74
2021/09/17 02:41:24;;;;;;;19.30;11.95;;;;;;;13.76;82.89;96289.00;5091113;28;20058;-74
2021/09/17 02:43:50;;;;;;;23.45;13.60;;;;;;;13.71;82.54;96291.97;5091218;28;20131;-74
2021/09/17 02:46:17;;;;;;;21.70;12.98;;;;;;;13.72;83.00;96290.81;5090682;28;20642;-73
2021/09/17 02:48:45;;;;;;;24.08;13.13;;;;;;;13.67;83.35;96297.31;5091371;28;20135;-74
2021/09/17 02:51:11;;;;;;;20.73;13.05;;;;;;;13.66;83.16;96292.97;5091032;28;20051;-74
2021/09/17 02:53:38;;;;;;;23.58;13.27;;;;;;;13.70;83.42;96293.91;5091020;28;20052;-74
2021/09/17 02:56:06;;;;;;;25.73;13.13;;;;;;;13.76;83.55;96291.75;5090603;28;20055;-73
2021/09/17 02:58:33;;;;;;;20.35;13.20;;;;;;;13.80;82.94;96293.47;5091160;28;20073;-74
2021/09/17 03:00:59;;;;;;;22.55;13.30;;;;;;;13.78;82.95;96292.19;5091409;28;20406;-76
2021/09/17 03:03:26;;;;;;;22.92;12.27;;;;;;;13.80;82.94;96293.47;5090667;28;20048;-74
2021/09/17 03:05:54;;;;;;;24.83;13.27;;;;;;;13.86;83.59;96296.00;5090224;28;20048;-74
2021/09/17 03:08:20;;;;;;;25.40;13.20;;;;;;;13.84;82.59;96294.41;5090538;28;20048;-74
2021/09/17 03:10:47;;;;;;;22.77;12.25;;;;;;;13.83;82.88;96297.44;5091317;28;20040;-73
2021/09/17 03:13:13;;;;;;;21.23;12.00;;;;;;;13.88;82.74;96301.91;5090621;28;20052;-73
2021/09/17 03:15:40;;;;;;;23.65;12.30;;;;;;;13.90;82.82;96296.91;5090995;28;20055;-73
2021/09/17 03:18:06;;;;;;;20.67;11.60;;;;;;;13.83;82.77;96292.81;5090332;28;20546;-73
2021/09/17 03:20:33;;;;;;;19.33;12.88;;;;;;;13.87;82.52;96292.09;5090568;28;20044;-74
2021/09/17 03:23:01;;;;;;;20.80;12.05;;;;;;;13.86;82.26;96290.50;5090750;28;20052;-73
2021/09/17 03:25:27;;;;;;;24.10;13.15;;;;;;;13.83;83.00;96292.81;5090021;28;20506;-74
2021/09/17 03:27:54;;;;;;;23.02;11.93;;;;;;;13.79;82.77;96291.88;5090709;28;20517;-74
2021/09/17 03:30:20;;;;;;;19.30;11.55;;;;;;;13.80;83.07;96287.19;5090253;28;20059;-74
2021/09/17 03:32:47;;;;;;;26.15;13.02;;;;;;;13.73;83.06;96287.78;5090163;28;20507;-74
2021/09/17 03:35:14;;;;;;;20.13;11.68;;;;;;;13.72;83.16;96288.88;5090297;28;20055;-74
2021/09/17 03:37:40;;;;;;;18.52;11.73;;;;;;;13.70;83.43;96288.44;5090929;28;20515;-74
2021/09/17 03:40:10;;;;;;;24.60;12.68;;;;;;;13.59;83.56;96287.28;5089818;28;20415;-73
2021/09/17 03:42:36;;;;;;;23.17;13.05;;;;;;;13.56;83.55;96282.47;5089953;28;20052;-74
2021/09/17 03:45:04;;;;;;;21.40;13.50;;;;;;;13.57;83.86;96287.63;5090042;28;20052;-74
2021/09/17 03:47:30;;;;;;;22.35;12.48;;;;;;;13.64;84.28;96289.00;5090236;28;20063;-74
2021/09/17 03:49:57;;;;;;;21.10;11.93;;;;;;;13.66;83.57;96287.50;5089897;28;20054;-75
2021/09/17 03:52:23;;;;;;;17.33;11.63;;;;;;;13.67;83.47;96278.16;5089833;28;20056;-74
2021/09/17 03:54:50;;;;;;;20.98;12.07;;;;;;;13.71;83.49;96286.50;5089728;28;20044;-74
2021/09/17 03:57:18;;;;;;;23.08;12.10;;;;;;;13.69;83.69;96289.59;5089543;28;20048;-74
2021/09/17 03:59:44;;;;;;;17.95;11.23;;;;;;;13.68;83.22;96296.19;5089714;28;20498;-74
2021/09/17 04:02:11;;;;;;;20.15;12.27;;;;;;;13.63;83.14;96290.94;5089629;28;20048;-73
2021/09/17 04:04:39;;;;;;;19.77;11.90;;;;;;;13.64;83.71;96284.31;5090118;28;20051;-74
2021/09/17 04:07:06;;;;;;;22.35;12.32;;;;;;;13.66;83.96;96286.72;5089331;28;20051;-73
2021/09/17 04:09:32;;;;;;;24.35;12.18;;;;;;;13.68;84.04;96282.53;5089761;28;20055;-74
2021/09/17 04:11:59;;;;;;;27.08;14.02;;;;;;;13.67;84.10;96280.09;5089899;28;20514;-73
2021/09/17 04:14:27;;;;;;;23.67;13.27;;;;;;;13.71;84.40;96279.09;5089120;28;20044;-73
2021/09/17 04:16:53;;;;;;;25.83;13.35;;;;;;;13.70;84.28;96277.50;5089636;28;20040;-73
2021/09/17 04:19:20;;;;;;;21.50;11.82;;;;;;;13.79;83.88;96272.72;5088951;28;20058;-73
2021/09/17 04:21:46;;;;;;;20.15;12.07;;;;;;;13.87;83.39;96281.16;5089631;28;20052;-73
2021/09/17 04:24:13;;;;;;;25.63;12.70;;;;;;;13.88;83.63;96282.75;5088900;28;20056;-73
2021/09/17 04:26:39;;;;;;;21.42;12.15;;;;;;;13.91;83.37;96271.13;5089468;28;20058;-74
2021/09/17 04:29:06;;;;;;;22.00;13.02;;;;;;;13.94;83.42;96275.91;5088980;28;20052;-73
2021/09/17 04:31:34;;;;;;;23.17;12.00;;;;;;;14.01;82.71;96281.63;5089201;28;20056;-74
2021/09/17 04:34:00;;;;;;;21.85;12.25;;;;;;;14.00;83.04;96288.25;5089231;28;20048;-74
2021/09/17 04:36:27;;;;;;;21.58;13.00;;;;;;;14.01;83.04;96281.63;5088434;28;20059;-74
2021/09/17 04:38:53;;;;;;;24.83;14.32;;;;;;;14.03;82.54;96284.81;5089009;28;20068;-74
2021/09/17 04:41:20;;;;;;;21.20;12.50;;;;;;;14.00;82.34;96280.84;5088658;28;20056;-73
2021/09/17 04:43:47;;;;;;;22.38;11.73;;;;;;;14.02;82.16;96288.69;5088837;28;20044;-73
2021/09/17 04:46:13;;;;;;;19.67;12.32;;;;;;;14.02;81.86;96288.69;5088678;28;20518;-73
2021/09/17 04:48:41;;;;;;;18.85;11.77;;;;;;;13.96;82.17;96285.41;5088687;28;20518;-73
2021/09/17 04:51:08;;;;;;;20.05;11.52;;;;;;;13.90;82.25;96288.69;5088223;28;20052;-79
2021/09/17 04:53:34;;;;;;;19.00;11.88;;;;;;;13.89;82.75;96289.84;5088410;28;20052;-79
2021/09/17 04:56:01;;;;;;;22.92;12.80;;;;;;;13.88;83.31;96288.22;5088483;28;20056;-78
2021/09/17 04:58:27;;;;;;;21.98;12.10;;;;;;;13.81;82.84;96284.13;5087822;28;20040;-79
2021/09/17 05:00:54;;;;;;;21.85;12.50;;;;;;;13.80;83.33;96282.53;5088385;28;20044;-80
2021/09/17 05:03:20;;;;;;;22.60;12.35;;;;;;;13.79;83.71;96288.34;5087838;28;20052;-77
2021/09/17 05:05:48;;;;;;;19.95;12.32;;;;;;;13.77;82.80;96291.41;5088276;28;20048;-77
2021/09/17 05:08:15;;;;;;;24.85;13.05;;;;;;;13.71;83.17;96286.50;5087671;28;20048;-77
2021/09/17 05:10:42;;;;;;;31.58;16.85;;;;;;;13.73;83.71;96293.25;5088473;28;20051;-78
2021/09/17 05:13:08;;;;;;;23.50;12.70;;;;;;;13.71;83.98;96300.19;5087938;28;20044;-79
2021/09/17 05:15:35;;;;;;;29.23;13.82;;;;;;;13.73;84.01;96298.72;5088683;28;20047;-79
2021/09/17 05:18:01;;;;;;;21.60;12.52;;;;;;;13.73;84.21;96304.19;5088029;28;20040;-76
2021/09/17 05:20:28;;;;;;;21.98;13.27;;;;;;;13.70;84.17;96299.38;5088023;28;20059;-77
2021/09/17 05:22:56;;;;;;;22.38;13.15;;;;;;;13.66;84.05;96297.66;5088608;28;20052;-78
2021/09/17 05:25:22;;;;;;;22.55;13.63;;;;;;;13.69;84.37;96302.47;5087581;28;20044;-78
2021/09/17 05:27:50;;;;;;;20.63;12.68;;;;;;;13.73;84.06;96304.19;5087744;28;20063;-77
2021/09/17 05:30:16;;;;;;;24.52;13.05;;;;;;;13.75;83.32;96307.38;5087452;28;20460;-78
2021/09/17 05:32:43;;;;;;;24.75;13.25;;;;;;;13.79;83.44;96305.56;5087978;28;20055;-76
2021/09/17 05:35:10;;;;;;;24.35;13.00;;;;;;;13.78;83.02;96312.19;5088082;28;20048;-77
2021/09/17 05:37:36;;;;;;;21.10;12.93;;;;;;;13.80;83.08;96309.91;5086951;28;20052;-75
2021/09/17 05:40:06;;;;;;;22.00;12.52;;;;;;;13.80;83.05;96315.38;5067357;28;20059;-75
2021/09/17 05:42:32;;;;;;;23.88;12.45;;;;;;;13.78;83.61;96309.44;5067817;28;20056;-77
2021/09/17 05:44:59;;;;;;;23.33;13.13;;;;;;;13.76;83.71;96308.97;5067712;28;20044;-76
2021/09/17 05:47:25;;;;;;;22.73;12.40;;;;;;;13.72;83.42;96312.72;5066976;28;20391;-76
2021/09/17 05:49:52;;;;;;;22.50;13.23;;;;;;;13.59;83.32;96314.63;5068473;28;20059;-78
2021/09/17 05:52:19;;;;;;;24.38;12.88;;;;;;;13.63;84.14;96326.50;5070705;28;20060;-77
2021/09/17 05:54:46;;;;;;;24.35;13.68;;;;;;;13.62;84.13;96318.63;5089644;28;20041;-79
2021/09/17 05:57:14;;;;;;;24.67;13.23;;;;;;;13.59;83.94;96325.59;5090156;28;20044;-78
2021/09/17 05:59:40;;;;;;;22.92;12.70;;;;;;;13.62;84.52;96330.38;5090744;28;20048;-78
2021/09/17 06:02:08;;;;;;;25.15;13.23;;;;;;;13.68;84.91;96329.03;5089838;28;20533;-77
2021/09/17 06:04:35;;;;;;;21.88;12.27;;;;;;;13.73;84.14;96328.81;5091023;28;20055;-79
2021/09/17 06:07:01;;;;;;;22.30;12.85;;;;;;;13.71;83.49;96333.81;5090508;28;20554;-73
2021/09/17 06:09:28;;;;;;;21.10;13.05;;;;;;;13.74;83.98;96327.69;5090945;28;20051;-78
2021/09/17 06:11:54;;;;;;;25.92;12.73;;;;;;;13.76;83.93;96325.38;5091085;28;20048;-78
2021/09/17 06:14:22;;;;;;;23.60;13.50;;;;;;;13.74;83.80;96326.88;5090449;28;20056;-79
2021/09/17 06:16:49;;;;;;;21.30;13.30;;;;;;;13.67;83.80;96330.16;5090734;28;20055;-78
2021/09/17 06:19:15;;;;;;;21.30;13.38;;;;;;;13.76;84.47;96325.38;5089990;28;20044;-78
2021/09/17 06:21:42;;;;;;;25.20;13.18;;;;;;;13.79;83.88;96326.66;5091064;28;20135;-79
2021/09/17 06:24:08;;;;;;;22.92;13.60;;;;;;;13.71;83.41;96322.88;5090147;28;20044;-78
2021/09/17 06:26:35;;;;;;;24.30;13.93;;;;;;;13.74;83.52;96322.19;5086660;28;20048;-79
2021/09/17 06:29:04;;;;;;;23.33;14.00;;;;;;;13.77;83.38;96316.03;5088772;28;20047;-79
2021/09/17 06:31:32;;;;;;;21.92;13.90;;;;;;;13.79;83.81;96321.19;5090152;28;20059;-79
2021/09/17 06:33:59;;;;;;;20.67;13.43;;;;;;;13.83;83.89;96324.81;5088845;28;20052;-78
2021/09/17 06:36:25;;;;;;;25.02;13.48;;;;;;;13.87;84.09;96319.47;5088964;28;20071;-78
2021/09/17 06:38:52;;;;;;;22.95;13.82;;;;;;;13.92;83.07;96325.53;5089500;28;20040;-79
2021/09/17 06:41:19;;;;;;;22.85;13.63;;;;;;;13.93;82.96;96320.84;5091799;28;20044;-79
2021/09/17 06:43:45;;;;;;;22.33;14.20;;;;;;;13.91;82.88;96325.88;5093948;28;20048;-80
2021/09/17 06:46:12;;;;;;;27.17;13.93;;;;;;;13.90;83.49;96324.28;5093772;28;20048;-79
2021/09/17 06:48:40;;;;;;;21.45;13.60;;;;;;;13.92;83.74;96327.47;5094266;28;20048;-79
2021/09/17 06:51:07;;;;;;;23.00;13.45;;;;;;;13.96;83.19;96322.91;5093845;28;20055;-78
2021/09/17 06:53:33;;;;;;;23.15;13.15;;;;;;;13.99;83.01;96323.03;5093423;28;20055;-78
2021/09/17 06:56:00;;;;;;;26.70;13.82;;;;;;;14.09;83.46;96327.25;5092520;28;20048;-78
2021/09/17 06:58:31;;;;;;;22.17;13.90;;;;;;;14.21;83.29;96323.75;5093816;28;20040;-78
2021/09/17 07:00:58;;;;;;;25.55;14.73;;;;;;;14.21;83.50;96324.53;5093944;28;20532;-79
2021/09/17 07:03:24;;;;;;;25.27;14.43;;;;;;;14.30;82.83;96325.25;5093800;28;20048;-79
2021/09/17 07:05:52;;;;;;;28.08;14.07;;;;;;;14.35;82.01;96325.00;5094110;28;20483;-79
2021/09/17 07:08:19;;;;;;;21.80;13.20;;;;;;;14.41;81.51;96333.78;5093483;28;20051;-80
2021/09/17 07:10:47;;;;;;;24.90;13.35;;;;;;;14.45;82.08;96328.41;5093634;28;20071;-79
2021/09/17 07:13:15;;;;;;;20.65;12.93;;;;;;;14.51;81.85;96324.31;5093244;28;20044;-80
2021/09/17 07:15:41;;;;;;;24.27;13.95;;;;;;;14.53;80.72;96330.28;5093660;28;20079;-79
2021/09/17 07:18:09;;;;;;;20.23;12.93;;;;;;;14.56;80.68;96324.91;5093129;28;20044;-79
2021/09/17 07:20:37;;;;;;;19.60;13.02;;;;;;;14.58;80.19;96330.03;5093743;28;20070;-79
2021/09/17 07:23:06;;;;;;;25.27;13.95;;;;;;;14.58;80.47;96330.03;5092908;28;20047;-79
2021/09/17 07:25:34;;;;;;;23.92;13.48;;;;;;;14.60;80.43;96331.28;5093457;28;20036;-78
2021/09/17 07:28:00;;;;;;;21.58;13.48;;;;;;;14.59;80.33;96329.69;5093557;28;20052;-79
2021/09/17 07:30:27;;;;;;;20.10;13.07;;;;;;;14.64;79.88;96331.41;5093261;28;20047;-79
2021/09/17 07:32:54;;;;;;;19.20;12.52;;;;;;;14.70;80.58;96330.00;5093472;28;20051;-79
2021/09/17 07:35:21;;;;;;;21.50;12.63;;;;;;;14.72;80.32;96322.25;5093097;28;20040;-79
2021/09/17 07:37:47;;;;;;;20.48;12.30;;;;;;;14.70;79.35;96324.53;5093141;28;20536;-78
2021/09/17 07:40:15;;;;;;;22.15;13.63;;;;;;;14.67;79.87;96325.25;5091942;28;20046;-79
2021/09/17 07:42:43;;;;;;;20.88;13.15;;;;;;;14.70;81.44;96330.00;5099415;28;20052;-79
2021/09/17 07:45:11;;;;;;;22.17;13.57;;;;;;;14.72;80.91;96324.19;5092865;28;20040;-78
2021/09/17 07:47:38;;;;;;;21.00;13.88;;;;;;;14.77;81.19;96335.72;5093040;28;20055;-79
2021/09/17 07:50:06;;;;;;;27.42;14.55;;;;;;;14.70;80.85;96324.53;5092787;28;20506;-79
2021/09/17 07:52:33;;;;;;;24.13;13.57;;;;;;;14.82;80.46;96332.72;5092440;28;20052;-79
2021/09/17 07:54:59;;;;;;;22.63;13.32;;;;;;;14.82;80.54;96326.44;5092865;28;20071;-79
2021/09/17 07:57:27;;;;;;;22.48;14.63;;;;;;;14.90;80.74;96327.47;5092513;28;20044;-79
2021/09/17 07:59:54;;;;;;;23.23;13.68;;;;;;;15.00;81.16;96327.00;5092904;28;20045;-80
2021/09/17 08:02:20;;;;;;;22.17;13.27;;;;;;;15.01;80.61;96323.91;5092291;28;20040;-78
2021/09/17 08:04:47;;;;;;;24.45;14.60;;;;;;;15.04;80.55;96322.41;5092940;28;20051;-79
2021/09/17 08:07:13;;;;;;;27.85;14.77;;;;;;;15.12;80.21;96332.44;5092222;28;20539;-79
2021/09/17 08:09:40;;;;;;;23.67;14.70;;;;;;;15.19;80.51;96327.16;5092562;28;20037;-78
2021/09/17 08:12:07;;;;;;;23.33;14.45;;;;;;;15.18;79.69;96325.56;5092074;28;20044;-79
2021/09/17 08:14:35;;;;;;;22.67;15.30;;;;;;;15.17;80.02;96329.44;5092700;28;20044;-79
2021/09/17 08:17:02;;;;;;;21.60;14.80;;;;;;;15.09;79.49;96325.72;5092030;28;20044;-79
2021/09/17 08:19:28;;;;;;;22.10;15.15;;;;;;;15.09;79.96;96330.41;5092349;28;20059;-80
2021/09/17 08:21:55;;;;;;;29.85;16.38;;;;;;;15.12;80.45;96335.19;5092410;28;20052;-79
2021/09/17 08:24:21;;;;;;;20.63;14.90;;;;;;;15.07;79.94;96333.47;5091335;28;20578;-79
2021/09/17 08:26:50;;;;;;;29.80;16.35;;;;;;;15.15;79.97;96339.97;5092398;28;20055;-79
2021/09/17 08:29:17;;;;;;;23.38;14.35;;;;;;;15.22;79.88;96340.16;5090875;28;20043;-79
2021/09/17 08:31:45;;;;;;;22.95;14.93;;;;;;;15.38;80.22;96341.03;5092259;28;20071;-79
2021/09/17 08:34:12;;;;;;;20.27;14.25;;;;;;;15.45;80.00;96343.16;5091352;28;20051;-80
2021/09/17 08:36:39;;;;;;;21.33;14.35;;;;;;;15.54;79.80;96345.75;5091970;28;20048;-78
2021/09/17 08:39:07;;;;;;;24.10;14.88;;;;;;;15.62;79.38;96342.06;5091279;28;20044;-79
2021/09/17 08:41:34;;;;;;;20.65;14.35;;;;;;;15.67;77.77;96338.31;5091871;28;20044;-79
2021/09/17 08:44:01;;;;;;;24.27;15.18;;;;;;;15.65;77.57;96341.38;5083211;28;20048;-79
2021/09/17 08:46:28;;;;;;;20.85;13.90;;;;;;;15.74;77.40;96336.53;5070744;28;20055;-79
2021/09/17 08:48:58;;;;;;;22.88;15.25;;;;;;;15.83;77.46;96342.69;5071838;28;20415;-80
2021/09/17 08:51:25;;;;;;;22.00;14.73;;;;;;;15.84;76.95;96333.28;5071032;28;20052;-80
2021/09/17 08:53:51;;;;;;;25.85;15.88;;;;;;;15.86;77.26;96341.16;5083906;28;20609;-79
2021/09/17 08:56:18;;;;;;;21.90;14.07;;;;;;;15.93;76.59;96343.31;5090947;28;20044;-80
2021/09/17 08:58:45;;;;;;;22.27;14.45;;;;;;;15.84;77.10;96338.78;5091868;28;20035;-79
2021/09/17 09:01:25;;;;;;;23.35;14.75;;;;;;;15.93;76.23;96340.56;5090849;28;20058;-79
2021/09/17 09:03:52;;;;;;;22.48;14.20;;;;;;;15.96;76.63;96335.16;5090994;28;20044;-79
2021/09/17 09:06:20;;;;;;;19.17;13.38;;;;;;;15.96;77.04;96337.09;5090101;28;20426;-79
2021/09/17 09:08:47;;;;;;;24.30;14.57;;;;;;;16.05;76.87;96337.75;5090747;28;20051;-79
2021/09/17 09:11:15;;;;;;;23.67;14.02;;;;;;;16.17;75.50;96340.41;5090679;28;20047;-81
2021/09/17 09:13:57;;;;;;;25.15;14.00;;;;;;;16.18;74.61;96339.22;5091597;28;20040;-79
2021/09/17 09:16:23;;;;;;;25.52;15.60;;;;;;;16.17;75.00;96337.66;5090740;28;20048;-78
2021/09/17 09:18:50;;;;;;;24.13;15.10;;;;;;;16.14;75.77;96336.41;5091629;28;20048;-79
2021/09/17 09:21:25;;;;;;;25.13;16.58;;;;;;;16.21;76.18;96330.28;5090638;28;20479;-79
2021/09/17 09:24:08;;;;;;;23.33;15.82;;;;;;;16.26;76.15;96335.53;5091086;28;20135;-78
2021/09/17 09:26:35;;;;;;;19.50;12.63;;;;;;;16.34;74.07;96329.06;5091260;28;20044;-79
2021/09/17 09:29:01;;;;;;;18.15;13.02;;;;;;;16.31;72.36;96337.22;5091070;28;20048;-77
2021/09/17 09:31:40;;;;;;;21.65;13.02;;;;;;;16.27;72.83;96337.13;5090731;28;20387;-78
2021/09/17 09:34:06;;;;;;;19.95;14.27;;;;;;;16.28;74.29;96322.22;5082338;28;20048;-77
2021/09/17 09:36:35;;;;;;;19.65;13.98;;;;;;;16.29;74.62;96325.78;5090928;28;20036;-79
2021/09/17 09:39:03;;;;;;;22.83;14.63;;;;;;;16.25;75.71;96320.19;5090152;28;20048;-76
2021/09/17 09:41:32;;;;;;;23.85;15.05;;;;;;;16.40;76.03;96313.91;5089933;28;20048;-79
2021/09/17 09:44:01;;;;;;;24.38;13.35;;;;;;;16.58;73.41;96310.75;5091306;28;20044;-79
2021/09/17 09:46:31;;;;;;;21.67;12.93;;;;;;;16.65;73.58;96310.91;5090794;28;20478;-79
2021/09/17 09:49:07;;;;;;;21.70;14.65;;;;;;;16.76;72.97;96302.94;5091122;28;20155;-79
2021/09/17 09:51:37;;;;;;;18.65;13.15;;;;;;;16.80;71.89;96304.59;5091078;28;20055;-78
2021/09/17 09:54:05;;;;;;;18.55;13.15;;;;;;;16.88;72.78;96303.63;5089812;28;20053;-78
2021/09/17 09:56:32;;;;;;;19.98;13.73;;;;;;;16.89;73.12;96298.91;5091279;28;20048;-79
2021/09/17 09:59:02;;;;;;;18.77;12.40;;;;;;;17.07;73.08;96300.09;5091047;28;20041;-78
2021/09/17 10:01:29;;;;;;;19.75;13.32;;;;;;;17.11;72.65;96294.66;5090763;28;20060;-77
2021/09/17 10:03:57;;;;;;;19.23;11.65;;;;;;;17.21;70.29;96294.88;5091014;28;20066;-78
2021/09/17 10:06:24;;;;;;;19.65;11.70;;;;;;;17.22;70.04;96290.16;5090320;28;20044;-79
2021/09/17 10:08:53;;;;;;;17.77;12.55;;;;;;;17.19;70.79;96290.91;5091185;28;20046;-79
2021/09/17 10:11:21;;;;;;;21.20;15.18;;;;;;;17.24;72.15;96287.84;5089900;28;20047;-80
2021/09/17 10:13:47;;;;;;;17.40;13.98;;;;;;;17.37;70.93;96292.03;5089999;28;20414;-78
2021/09/17 10:16:16;;;;;;;18.35;14.02;;;;;;;17.49;69.96;96288.34;5093268;28;20055;-80
2021/09/17 10:18:44;;;;;;;18.17;13.30;;;;;;;17.60;69.85;96299.56;5094427;28;20044;-79
2021/09/17 10:21:13;;;;;;;14.95;11.27;;;;;;;17.52;68.90;96293.13;5092052;28;20044;-78
2021/09/17 10:23:44;;;;;;;15.32;9.65;;;;;;;17.62;69.04;96289.75;5094082;28;20044;-78
2021/09/17 10:26:15;;;;;;;16.23;10.82;;;;;;;17.80;69.43;96287.38;5093636;28;20426;-80
2021/09/17 10:29:06;;;;;;;11.40;8.77;;;;;;;18.00;67.76;96286.16;5094470;28;20097;-78
2021/09/17 10:31:42;;;;;;;9.88;8.10;;;;;;;18.13;66.56;96291.47;5094185;28;20040;-78
2021/09/17 10:34:32;;;;;;;13.77;9.25;;;;;;;18.40;66.62;96276.56;5094147;28;20070;-79
2021/09/17 10:36:59;;;;;;;12.73;9.23;;;;;;;18.57;65.43;96279.94;5094309;28;20426;-79
2021/09/17 10:39:25;;;;;;;12.88;10.07;;;;;;;18.58;65.93;96276.03;5093777;28;20059;-78
2021/09/17 10:42:11;;;;;;;12.68;8.80;;;;;;;18.62;64.81;96274.13;5093455;28;20407;-78
2021/09/17 10:45:14;;;;;;;13.18;9.15;;;;;;;18.39;64.08;96269.47;5087321;28;20044;-79
2021/09/17 10:48:00;;;;;;;10.75;7.93;;;;;;;18.54;63.99;96273.22;5091625;28;20066;-78
2021/09/17 10:50:42;;;;;;;9.30;7.18;;;;;;;18.51;62.67;96266.47;5093722;28;20040;-79
2021/09/17 10:53:10;;;;;;;6.57;4.93;;;;;;;18.39;60.22;96263.94;5092645;28;20044;-78
2021/09/17 10:56:04;;;;;;;7.93;4.93;;;;;;;18.49;61.61;96266.06;5092316;28;20051;-80
2021/09/17 10:58:33;;;;;;;7.35;4.70;;;;;;;18.54;61.86;96266.94;5093617;28;20040;-79
2021/09/17 11:01:02;;;;;;;7.75;6.35;;;;;;;18.52;61.68;96261.75;5093958;28;20044;-77
2021/09/17 11:03:57;;;;;;;7.90;5.85;;;;;;;18.50;60.52;96270.41;5093897;28;20048;-78
2021/09/17 11:06:26;;;;;;;10.02;6.25;;;;;;;18.56;62.73;96259.06;5093440;28;20071;-79
2021/09/17 11:08:54;;;;;;;8.35;5.53;;;;;;;18.59;61.23;96259.13;5093819;28;20047;-79
2021/09/17 11:11:22;;;;;;;8.77;5.50;;;;;;;18.56;60.44;96261.81;5093346;28;20044;-79
2021/09/17 11:13:51;;;;;;;9.23;5.80;;;;;;;18.61;60.99;96264.25;5093810;28;20048;-79
2021/09/17 11:16:19;;;;;;;6.15;2.85;;;;;;;18.42;53.90;96263.19;5093269;28;20531;-78
2021/09/17 11:18:57;;;;;;;3.92;2.38;;;;;;;18.43;53.66;96264.00;5093881;28;20518;-77
2021/09/17 11:21:24;;;;;;;7.32;2.67;;;;;;;18.34;53.23;96258.75;5093159;28;20108;-81
2021/09/17 11:23:52;;;;;;;2.70;2.00;;;;;;;18.42;51.57;96257.69;5093432;28;20040;-80